Terminal Aerodrome Forecast
Issued by NWS

Home | Current Version | Previous Version | Text Only | Print | Product List | Glossary On
Versions: 1 2 3 4 5 6 7 8 9 10 11 12 13 14 15 16 17
000
FTUS46 KSEW 251700 RRA
TAFOLM
TAF
KOLM 251735Z 2518/2618 02006KT P6SM SCT030 OVC070
      TEMPO 2518/2520 4SM -RA BR SCT003 BKN030 OVC060
     FM252000 04008KT P6SM -RA SCT020 OVC040
      TEMPO 2521/2601 4SM -RA BR OVC020
     FM260100 20020G30KT P6SM -RA SCT020 BKN035 OVC060
     FM261300 23012G20KT P6SM -SHRA BKN015 BKN035=

USA.gov is the U.S. government's official web portal to all federal, state and local government web resources and services.